Portada
METAR-TAF:

METAR-TAF

Aeropuertos :

Aeropuerto Internacional Tobías Bolaños

San José, Costa Rica

latitud: 09-57N, longitud: 084-09W, altitud: 994 m

Observación

El informe se hizo hace 1 hora y 8 minutos, a las 14:00 UTC
Viento 8 kt del sureste
Temperatura 24°C
Humedad 61%
Presión 1016 hPa
Visibilidad 10 km o más
sin nubes por debajo de 1500 m y sin presencia de cumulonimbus.

METAR: MRPV 011400Z 13008KT CAVOK 24/16 A3001 NOSIG

Hora: 09:08 (15:08 UTC)

Pronóstico

El informe se hizo hace 4 horas y 8 minutos, a las 11:00 UTC
Pronóstico válido del 01 a las 12 UTC al 02 a las 12 UTC
Viento 10 kt del este
Visibilidad 10 km o más
Escasas nubes a una altura de 4000 ft
Temporalmente
del 01 a las 18 UTC al 01 a las 22 UTC
Viento 7 kt del oeste
Escasas nubes a una altura de 2000 ft, Cumulus congestus.

TAF: MRPV 011100Z 0112/0212 09010KT 9999 FEW040 TX30/0119Z TN19/0211Z TEMPO 0118/0122 27007KT FEW020TCU

Observaciones y pronósticos meteorológicos de más de 4000 aeropuertos (mensajes METAR y TAF).

Los puntos amarillos y rojos representan las estaciones disponibles.

Ponga el ratón en el punto deseado para ver el nombre de la estación.

Haga clic para ver las observaciones y los pronósticos meteorológicos.

Para cambiar el mapa : haga clic en los botones verdes con una cruz de color negro para hacer un zoom, en el botón verde con un guión para alejar o en las flechas verdes para mapas adyacentes.


METAR-TAF: